createdAt,value
2018-11-02T00:00:38.171Z,91.98
2018-11-02T00:03:07.594Z,91.97
2018-11-02T00:05:37.760Z,92.28
2018-11-02T00:08:08.315Z,92.50
2018-11-02T00:10:37.175Z,92.82
2018-11-02T00:13:07.099Z,92.76
2018-11-02T00:15:35.924Z,92.58
2018-11-02T00:18:04.851Z,92.62
2018-11-02T00:20:33.824Z,92.62
2018-11-02T00:23:02.719Z,92.12
2018-11-02T00:25:31.677Z,92.48
2018-11-02T00:28:00.590Z,92.09
2018-11-02T00:30:29.366Z,92.60
2018-11-02T00:32:58.246Z,92.54
2018-11-02T00:35:27.085Z,92.43
2018-11-02T00:37:56.074Z,92.31
2018-11-02T00:40:25.696Z,92.51
2018-11-02T00:42:55.035Z,92.08
2018-11-02T00:45:24.025Z,92.27
2018-11-02T00:47:54.157Z,91.71
2018-11-02T00:50:23.135Z,91.92
2018-11-02T00:52:52.467Z,91.48
2018-11-02T00:55:22.622Z,91.22
2018-11-02T00:57:51.648Z,91.63
2018-11-02T01:00:21.129Z,91.79
2018-11-02T01:02:50.057Z,91.56
2018-11-02T01:05:20.380Z,91.65
2018-11-02T01:07:50.344Z,91.45
2018-11-02T01:10:19.384Z,91.63
2018-11-02T01:12:48.875Z,91.59
2018-11-02T01:15:18.027Z,92.04
2018-11-02T01:17:47.032Z,92.14
2018-11-02T01:20:16.192Z,91.88
2018-11-02T01:22:45.287Z,92.16
2018-11-02T01:25:14.620Z,92.50
2018-11-02T01:27:43.679Z,92.50
2018-11-02T01:30:12.720Z,91.74
2018-11-02T01:32:41.712Z,92.22
2018-11-02T01:35:10.734Z,92.03
2018-11-02T01:37:40.438Z,91.98
2018-11-02T01:40:10.343Z,91.62
2018-11-02T01:42:39.715Z,92.26
2018-11-02T01:45:08.590Z,91.96
2018-11-02T01:47:38.356Z,92.44
2018-11-02T01:50:07.623Z,92.60
2018-11-02T01:52:36.705Z,92.23
2018-11-02T01:55:07.319Z,92.64
2018-11-02T01:57:36.272Z,91.83
2018-11-02T02:00:06.425Z,92.43
2018-11-02T02:02:35.386Z,92.33
2018-11-02T02:05:04.426Z,92.18
2018-11-02T02:07:34.302Z,91.93
2018-11-02T02:10:03.469Z,92.05
2018-11-02T02:12:33.081Z,92.23
2018-11-02T02:15:02.460Z,92.44
2018-11-02T02:17:31.346Z,92.68
2018-11-02T02:20:00.267Z,92.18
2018-11-02T02:22:29.145Z,92.67
2018-11-02T02:24:58.253Z,92.21
2018-11-02T02:27:27.221Z,92.07
2018-11-02T02:29:56.213Z,92.32
2018-11-02T02:32:25.309Z,92.10
2018-11-02T02:34:56.144Z,92.22
2018-11-02T02:37:25.262Z,92.40
2018-11-02T02:39:54.712Z,92.31
2018-11-02T02:42:24.445Z,91.79
2018-11-02T02:44:53.473Z,92.16
2018-11-02T02:47:23.517Z,91.64
2018-11-02T02:49:52.927Z,92.00
2018-11-02T02:52:21.932Z,91.68
2018-11-02T02:54:51.939Z,92.42
2018-11-02T02:57:21.017Z,91.75
2018-11-02T02:59:50.794Z,92.37
2018-11-02T03:02:19.647Z,92.46
2018-11-02T03:04:48.676Z,91.66
2018-11-02T03:07:18.169Z,92.12
2018-11-02T03:09:47.166Z,91.85
2018-11-02T03:12:16.778Z,92.74
2018-11-02T03:14:46.022Z,92.37
2018-11-02T03:17:15.257Z,92.70
2018-11-02T03:19:45.756Z,92.58
2018-11-02T03:22:14.879Z,91.96
2018-11-02T03:24:43.887Z,92.15
2018-11-02T03:27:13.146Z,91.82
2018-11-02T03:29:42.139Z,92.09
2018-11-02T03:32:12.090Z,91.98
2018-11-02T03:34:41.070Z,91.68
2018-11-02T03:37:10.099Z,92.30
2018-11-02T03:39:39.096Z,91.99
2018-11-02T03:42:08.701Z,92.45
2018-11-02T03:44:37.590Z,92.13
2018-11-02T03:47:07.443Z,92.18
2018-11-02T03:49:37.325Z,92.05
2018-11-02T03:52:06.727Z,92.24
2018-11-02T03:54:36.629Z,92.12
2018-11-02T03:57:06.639Z,91.54
2018-11-02T03:59:36.032Z,91.77
2018-11-02T04:02:05.018Z,92.10
2018-11-02T04:04:34.013Z,91.89
2018-11-02T04:07:03.629Z,92.36
2018-11-02T04:09:32.579Z,91.97
2018-11-02T04:12:02.081Z,92.93
2018-11-02T04:14:30.826Z,92.03
2018-11-02T04:16:59.587Z,92.04
2018-11-02T04:19:28.883Z,91.40
2018-11-02T04:21:57.656Z,92.35
2018-11-02T04:24:26.649Z,91.97
2018-11-02T04:26:55.605Z,91.38
2018-11-02T04:29:25.690Z,91.39
2018-11-02T04:31:54.657Z,91.34
2018-11-02T04:34:23.459Z,91.82
2018-11-02T04:36:52.507Z,91.14
2018-11-02T04:39:21.459Z,91.11
2018-11-02T04:41:51.064Z,90.42
2018-11-02T04:44:19.974Z,90.49
2018-11-02T04:46:49.467Z,90.27
2018-11-02T04:49:18.862Z,90.46
2018-11-02T04:51:47.663Z,89.74
2018-11-02T04:54:17.298Z,89.57
2018-11-02T04:56:46.214Z,89.49
2018-11-02T04:59:15.656Z,89.43
2018-11-02T05:01:45.334Z,89.62
2018-11-02T05:04:14.348Z,89.74
2018-11-02T05:06:43.798Z,89.50
2018-11-02T05:09:12.862Z,89.49
2018-11-02T05:11:42.432Z,88.99
2018-11-02T05:14:11.393Z,88.75
2018-11-02T05:16:40.244Z,89.20
2018-11-02T05:19:09.863Z,88.57
2018-11-02T05:21:38.647Z,89.12
2018-11-02T05:24:07.467Z,88.65
2018-11-02T05:26:37.168Z,88.53
2018-11-02T05:29:06.416Z,88.47
2018-11-02T05:31:35.248Z,88.21
2018-11-02T05:34:04.215Z,88.32
2018-11-02T05:36:33.149Z,87.72
2018-11-02T05:39:02.247Z,87.92
2018-11-02T05:41:31.106Z,87.68
2018-11-02T05:44:14.855Z,87.70
2018-11-02T05:46:44.838Z,87.82
2018-11-02T05:49:14.477Z,87.76
2018-11-02T05:51:43.483Z,87.51
2018-11-02T05:54:13.179Z,87.41
2018-11-02T05:56:42.024Z,87.12
2018-11-02T05:59:11.592Z,86.95
2018-11-02T06:01:41.081Z,87.26
2018-11-02T06:04:09.880Z,86.14
2018-11-02T06:06:39.329Z,86.55
2018-11-02T06:09:08.647Z,86.26
2018-11-02T06:11:38.104Z,87.03
2018-11-02T06:14:06.950Z,86.68
2018-11-02T06:16:35.797Z,86.17
2018-11-02T06:19:06.042Z,86.62
2018-11-02T06:21:34.947Z,86.23
2018-11-02T06:24:04.825Z,87.01
2018-11-02T06:26:33.644Z,86.23
2018-11-02T06:29:02.596Z,85.45
2018-11-02T06:31:31.458Z,86.00
2018-11-02T06:34:00.350Z,86.16
2018-11-02T06:36:29.315Z,86.20
2018-11-02T06:38:58.412Z,85.52
2018-11-02T06:41:27.843Z,85.98
2018-11-02T06:43:57.588Z,85.61
2018-11-02T06:46:27.299Z,85.70
2018-11-02T06:48:57.057Z,85.27
2018-11-02T06:51:26.157Z,85.83
2018-11-02T06:53:55.812Z,85.45
2018-11-02T06:56:24.900Z,85.23
2018-11-02T06:58:53.867Z,85.00
2018-11-02T07:01:23.459Z,84.51
2018-11-02T07:03:52.474Z,84.92
2018-11-02T07:06:21.998Z,85.61
2018-11-02T07:08:51.016Z,84.98
2018-11-02T07:11:20.626Z,84.67
2018-11-02T07:13:49.580Z,85.25
2018-11-02T07:16:18.720Z,84.70
2018-11-02T07:18:48.582Z,84.58
2018-11-02T07:21:17.399Z,84.48
2018-11-02T07:23:47.193Z,84.92
2018-11-02T07:26:16.258Z,85.06
2018-11-02T07:28:49.490Z,84.56
2018-11-02T07:31:18.458Z,84.60
2018-11-02T07:33:47.335Z,84.71
2018-11-02T07:36:16.354Z,84.90
2018-11-02T07:38:46.346Z,84.81
2018-11-02T07:41:15.404Z,84.99
2018-11-02T07:43:45.046Z,84.86
2018-11-02T07:46:14.770Z,84.21
2018-11-02T07:48:45.500Z,84.71
2018-11-02T07:51:14.629Z,84.32
2018-11-02T07:53:43.729Z,84.13
2018-11-02T07:56:12.698Z,83.50
2018-11-02T07:58:41.609Z,83.93
2018-11-02T08:01:11.270Z,83.63
2018-11-02T08:03:40.925Z,83.12
2018-11-02T08:06:10.574Z,83.03
2018-11-02T08:08:39.414Z,82.31
2018-11-02T08:11:09.006Z,82.10
2018-11-02T08:13:37.880Z,81.38
2018-11-02T08:16:07.138Z,81.70
2018-11-02T08:18:36.681Z,81.39
2018-11-02T08:21:06.052Z,81.74
2018-11-02T08:23:34.888Z,81.54
2018-11-02T08:26:03.754Z,81.29
2018-11-02T08:28:32.656Z,80.57
2018-11-02T08:31:01.990Z,80.64
2018-11-02T08:33:30.894Z,80.96
2018-11-02T08:35:59.868Z,80.33
2018-11-02T08:38:28.771Z,80.79
2018-11-02T08:40:58.740Z,80.16
2018-11-02T08:43:28.058Z,80.15
2018-11-02T08:46:01.447Z,79.51
2018-11-02T08:48:30.982Z,79.32
2018-11-02T08:50:59.899Z,79.14
2018-11-02T08:53:28.799Z,79.32
2018-11-02T08:55:58.064Z,79.53
2018-11-02T08:58:27.266Z,79.12
2018-11-02T09:00:56.746Z,80.25
2018-11-02T09:03:26.252Z,79.66
2018-11-02T09:05:56.048Z,79.51
2018-11-02T09:08:25.156Z,79.16
2018-11-02T09:10:55.039Z,78.90
2018-11-02T09:13:24.119Z,79.44
2018-11-02T09:15:53.496Z,79.11
2018-11-02T09:18:23.673Z,79.41
2018-11-02T09:20:53.656Z,79.49
2018-11-02T09:23:23.681Z,78.79
2018-11-02T09:25:52.777Z,79.28
2018-11-02T09:28:22.039Z,79.16
2018-11-02T09:30:51.113Z,79.22
2018-11-02T09:33:21.579Z,78.79
2018-11-02T09:35:50.681Z,79.41
2018-11-02T09:38:19.637Z,78.66
2018-11-02T09:40:48.509Z,78.92
2018-11-02T09:43:18.218Z,79.31
2018-11-02T09:45:48.090Z,79.43
2018-11-02T09:49:22.987Z,78.67
2018-11-02T09:51:51.994Z,78.18
2018-11-02T09:54:21.178Z,78.29
2018-11-02T09:56:50.365Z,78.56
2018-11-02T09:59:20.386Z,78.38
2018-11-02T10:01:49.707Z,78.21
2018-11-02T10:04:21.782Z,78.32
2018-11-02T10:06:51.594Z,78.32
2018-11-02T10:09:20.875Z,77.67
2018-11-02T10:11:49.989Z,77.58
2018-11-02T10:14:19.952Z,77.49
2018-11-02T10:16:48.911Z,77.31
2018-11-02T10:19:24.632Z,76.72
2018-11-02T10:21:53.700Z,76.61
2018-11-02T10:24:22.992Z,76.03
2018-11-02T10:26:52.468Z,76.05
2018-11-02T10:29:22.991Z,75.90
2018-11-02T10:31:52.297Z,75.66
2018-11-02T10:34:23.823Z,75.66
2018-11-02T10:36:52.972Z,75.04
2018-11-02T10:39:22.478Z,74.00
2018-11-02T10:41:55.764Z,73.31
2018-11-02T10:44:27.270Z,72.80
2018-11-02T10:46:57.191Z,72.60
2018-11-02T10:50:29.715Z,73.79
2018-11-02T10:52:58.588Z,73.20
2018-11-02T10:55:27.782Z,73.14
2018-11-02T10:57:56.914Z,72.65
2018-11-02T11:00:31.984Z,72.80
2018-11-02T11:03:16.567Z,72.01
2018-11-02T11:05:49.147Z,72.23
2018-11-02T11:08:18.423Z,71.99
2018-11-02T11:10:47.627Z,71.64
2018-11-02T11:13:17.705Z,70.75
2018-11-02T11:15:46.511Z,70.16
2018-11-02T11:18:15.659Z,69.88
2018-11-02T11:20:49.623Z,70.17
2018-11-02T11:23:18.678Z,69.99
2018-11-02T11:25:47.617Z,69.87
2018-11-02T11:28:16.743Z,69.53
2018-11-02T11:30:46.062Z,69.89
2018-11-02T11:33:15.430Z,69.92
2018-11-02T11:35:44.559Z,70.04
2018-11-02T11:38:13.606Z,69.35
2018-11-02T11:40:43.422Z,70.05
2018-11-02T11:43:13.111Z,70.15
2018-11-02T11:45:43.321Z,70.26
2018-11-02T11:48:13.590Z,70.94
2018-11-02T11:50:42.792Z,70.51
2018-11-02T11:53:11.820Z,70.54
2018-11-02T11:58:30.459Z,70.81
2018-11-02T12:01:00.765Z,70.49
2018-11-02T12:03:30.251Z,70.54
2018-11-02T12:05:59.864Z,70.96
2018-11-02T12:08:28.831Z,70.56
2018-11-02T12:10:58.708Z,70.19
2018-11-02T12:13:27.807Z,70.21
2018-11-02T12:15:56.920Z,70.06
2018-11-02T12:18:26.592Z,69.58
2018-11-02T12:20:56.688Z,70.47
2018-11-02T12:23:25.645Z,70.18
2018-11-02T12:25:55.805Z,70.05
2018-11-02T12:28:24.838Z,70.03
2018-11-02T12:30:54.729Z,70.07
2018-11-02T12:33:23.626Z,69.37
2018-11-02T12:35:53.508Z,69.05
2018-11-02T12:38:23.335Z,70.42
2018-11-02T12:40:54.359Z,70.04
2018-11-02T12:43:24.348Z,69.94
2018-11-02T12:45:53.695Z,69.86
2018-11-02T12:48:23.672Z,70.07
2018-11-02T12:50:52.916Z,69.96
2018-11-02T12:53:22.003Z,69.74
2018-11-02T12:55:51.126Z,69.59
2018-11-02T12:58:20.383Z,69.86
2018-11-02T13:00:49.889Z,69.35
2018-11-02T13:03:18.962Z,69.02
2018-11-02T13:05:48.664Z,69.64
2018-11-02T13:08:18.006Z,69.35
2018-11-02T13:10:49.406Z,69.88
2018-11-02T13:13:19.071Z,69.48
2018-11-02T13:15:48.103Z,69.04
2018-11-02T13:18:19.495Z,69.18
2018-11-02T13:20:48.809Z,69.91
2018-11-02T13:23:17.652Z,70.07
2018-11-02T13:25:46.789Z,70.46
2018-11-02T13:28:16.187Z,70.65
2018-11-02T13:30:45.387Z,70.10
2018-11-02T13:33:14.342Z,70.17
2018-11-02T13:35:43.401Z,70.08
2018-11-02T13:38:12.359Z,70.58
2018-11-02T13:40:42.034Z,70.14
2018-11-02T13:43:11.599Z,70.11
2018-11-02T13:45:40.902Z,69.56
2018-11-02T13:48:10.553Z,69.52
2018-11-02T13:50:39.488Z,70.27
2018-11-02T13:53:08.481Z,70.02
2018-11-02T13:55:37.371Z,70.66
2018-11-02T13:58:08.286Z,70.83
2018-11-02T14:00:38.020Z,69.93
2018-11-02T14:03:06.961Z,70.35
2018-11-02T14:05:36.615Z,70.32
2018-11-02T14:08:05.715Z,70.73
2018-11-02T14:10:34.645Z,70.49
2018-11-02T14:13:04.009Z,70.43
2018-11-02T14:15:32.947Z,70.55
2018-11-02T14:18:01.900Z,70.54
2018-11-02T14:20:31.492Z,71.10
2018-11-02T14:23:00.587Z,70.76
2018-11-02T14:26:32.879Z,71.01
2018-11-02T14:29:02.222Z,71.01
2018-11-02T14:31:31.898Z,71.53
2018-11-02T14:34:00.827Z,71.05
2018-11-02T14:36:29.779Z,71.72
2018-11-02T14:38:58.840Z,72.02
2018-11-02T14:41:28.644Z,72.64
2018-11-02T14:43:58.055Z,72.09
2018-11-02T14:46:27.685Z,72.58
2018-11-02T14:48:57.206Z,72.64
2018-11-02T14:51:26.143Z,72.51
2018-11-02T14:53:55.445Z,72.74
2018-11-02T14:56:25.279Z,73.08
2018-11-02T14:58:54.526Z,72.93
2018-11-02T15:01:24.128Z,73.02
2018-11-02T15:03:53.695Z,73.49
2018-11-02T15:06:23.420Z,73.37
2018-11-02T15:08:52.858Z,73.44
2018-11-02T15:11:22.128Z,73.68
2018-11-02T15:13:51.531Z,73.76
2018-11-02T15:16:21.021Z,74.02
2018-11-02T15:18:50.510Z,73.72
2018-11-02T15:21:19.506Z,74.57
2018-11-02T15:23:48.323Z,74.62
2018-11-02T15:26:17.342Z,74.94
2018-11-02T15:28:46.431Z,74.50
2018-11-02T15:31:15.679Z,74.62
2018-11-02T15:33:44.859Z,74.99
2018-11-02T15:36:14.054Z,75.11
2018-11-02T15:38:42.940Z,75.59
2018-11-02T15:41:12.930Z,76.14
2018-11-02T15:43:42.510Z,76.62
2018-11-02T15:46:12.169Z,76.68
2018-11-02T15:48:41.929Z,76.52
2018-11-02T15:51:10.832Z,77.55
2018-11-02T15:53:39.822Z,77.02
2018-11-02T15:56:08.813Z,77.49
2018-11-02T15:58:37.731Z,77.63
2018-11-02T16:01:07.317Z,78.45
2018-11-02T16:03:36.925Z,78.71
2018-11-02T16:06:06.506Z,78.68
2018-11-02T16:08:35.309Z,78.65
2018-11-02T16:11:04.319Z,78.89
2018-11-02T16:13:33.166Z,78.96
2018-11-02T16:16:02.199Z,79.25
2018-11-02T16:18:31.899Z,80.45
2018-11-02T16:21:00.736Z,80.26
2018-11-02T16:23:29.554Z,80.44
2018-11-02T16:25:59.350Z,80.48
2018-11-02T16:28:28.140Z,80.91
2018-11-02T16:30:56.939Z,81.16
2018-11-02T16:33:26.422Z,81.80
2018-11-02T16:35:55.731Z,81.38
2018-11-02T16:38:24.829Z,81.71
2018-11-02T16:40:54.833Z,81.88
2018-11-02T16:43:24.589Z,82.01
2018-11-02T16:45:54.116Z,81.88
2018-11-02T16:48:24.082Z,82.29
2018-11-02T16:50:54.652Z,82.23
2018-11-02T16:53:23.456Z,81.86
2018-11-02T16:55:52.510Z,81.66
2018-11-02T16:58:21.968Z,81.54
2018-11-02T17:00:51.598Z,80.80
2018-11-02T17:03:20.424Z,80.88
2018-11-02T17:05:50.369Z,81.00
2018-11-02T17:08:19.334Z,80.96
2018-11-02T17:10:48.362Z,80.85
2018-11-02T17:13:17.304Z,80.73
2018-11-02T17:15:46.407Z,80.56
2018-11-02T17:18:15.523Z,80.59
2018-11-02T17:20:45.095Z,80.52
2018-11-02T17:23:13.883Z,80.18
2018-11-02T17:25:42.676Z,81.13
2018-11-02T17:28:11.519Z,80.95
2018-11-02T17:30:40.304Z,80.30
2018-11-02T17:33:09.244Z,80.70
2018-11-02T17:35:38.117Z,80.89
2018-11-02T17:38:07.592Z,80.93
2018-11-02T17:40:36.926Z,81.10
2018-11-02T17:43:06.453Z,80.69
2018-11-02T17:45:35.827Z,80.67
2018-11-02T17:48:04.893Z,80.27
2018-11-02T17:50:34.588Z,81.13
2018-11-02T17:53:03.474Z,80.57
2018-11-02T17:55:33.159Z,80.70
2018-11-02T17:58:01.935Z,80.89
2018-11-02T18:00:31.447Z,80.30
2018-11-02T18:03:00.236Z,80.23
2018-11-02T18:05:29.696Z,80.70
2018-11-02T18:07:58.518Z,80.23
2018-11-02T18:10:27.382Z,80.16
2018-11-02T18:12:56.218Z,80.42
2018-11-02T18:15:25.331Z,80.24
2018-11-02T18:17:54.527Z,79.66
2018-11-02T18:20:24.544Z,79.47
2018-11-02T18:22:53.628Z,80.08
2018-11-02T18:25:53.363Z,80.19
2018-11-02T18:28:22.616Z,79.76
2018-11-02T18:30:51.838Z,79.76
2018-11-02T18:33:20.949Z,80.34
2018-11-02T18:35:49.977Z,79.44
2018-11-02T18:38:18.889Z,79.22
2018-11-02T18:40:48.368Z,79.54
2018-11-02T18:43:18.171Z,79.12
2018-11-02T18:45:47.941Z,79.52
2018-11-02T18:48:17.590Z,78.67
2018-11-02T18:50:47.393Z,79.07
2018-11-02T18:53:16.919Z,79.08
2018-11-02T18:55:46.004Z,78.80
2018-11-02T18:58:15.034Z,79.18
2018-11-02T19:00:44.435Z,78.89
2018-11-02T19:03:13.303Z,79.18
2018-11-02T19:05:42.754Z,79.42
2018-11-02T19:08:11.506Z,79.27
2018-11-02T19:10:40.385Z,79.06
2018-11-02T19:13:09.337Z,79.19
2018-11-02T19:15:38.187Z,79.12
2018-11-02T19:18:07.274Z,79.18
2018-11-02T19:20:36.772Z,78.88
2018-11-02T19:23:05.608Z,79.29
2018-11-02T19:25:34.499Z,78.47
2018-11-02T19:28:03.446Z,78.83
2018-11-02T19:30:32.310Z,78.74
2018-11-02T19:33:01.596Z,78.56
2018-11-02T19:35:30.582Z,78.59
2018-11-02T19:37:59.567Z,78.92
2018-11-02T19:40:28.466Z,78.63
2018-11-02T19:42:58.076Z,78.54
2018-11-02T19:45:28.192Z,79.67
2018-11-02T19:48:03.312Z,79.54
2018-11-02T19:50:33.862Z,79.42
2018-11-02T19:53:02.903Z,79.66
2018-11-02T19:55:36.280Z,79.60
2018-11-02T19:58:05.227Z,79.81
2018-11-02T20:00:34.769Z,78.83
2018-11-02T20:03:03.627Z,79.43
2018-11-02T20:05:32.966Z,79.54
2018-11-02T20:08:01.882Z,79.50
2018-11-02T20:10:32.262Z,79.24
2018-11-02T20:13:01.345Z,79.94
2018-11-02T20:15:30.315Z,80.02
2018-11-02T20:17:59.238Z,80.00
2018-11-02T20:20:28.929Z,80.45
2018-11-02T20:22:57.747Z,79.94
2018-11-02T20:25:26.630Z,80.47
2018-11-02T20:27:55.899Z,80.74
2018-11-02T20:30:24.896Z,80.31
2018-11-02T20:32:54.713Z,80.33
2018-11-02T20:35:23.752Z,79.96
2018-11-02T20:37:53.045Z,80.08
2018-11-02T20:40:22.054Z,80.39
2018-11-02T20:42:52.591Z,80.05
2018-11-02T20:45:22.342Z,80.53
2018-11-02T20:47:52.842Z,80.36
2018-11-02T20:50:22.441Z,80.44
2018-11-02T20:52:53.365Z,79.83
2018-11-02T20:55:23.264Z,80.19
2018-11-02T20:57:53.448Z,80.25
2018-11-02T21:00:24.253Z,80.51
2018-11-02T21:02:55.032Z,80.74
2018-11-02T21:05:24.683Z,80.77
2018-11-02T21:07:54.069Z,79.91
2018-11-02T21:10:23.561Z,80.37
2018-11-02T21:12:53.748Z,80.28
2018-11-02T21:15:24.038Z,79.70
2018-11-02T21:17:53.852Z,80.29
2018-11-02T21:20:24.686Z,80.18
2018-11-02T21:22:53.559Z,79.53
2018-11-02T21:25:22.898Z,79.50
2018-11-02T21:27:56.402Z,79.54
2018-11-02T21:30:26.465Z,79.51
2018-11-02T21:32:56.301Z,79.22
2018-11-02T21:35:25.711Z,79.57
2018-11-02T21:37:54.767Z,79.38
2018-11-02T21:40:24.885Z,78.48
2018-11-02T21:42:55.079Z,78.68
2018-11-02T21:45:25.811Z,78.36
2018-11-02T21:47:55.690Z,77.84
2018-11-02T21:50:25.411Z,77.85
2018-11-02T21:52:55.728Z,76.51
2018-11-02T21:55:25.647Z,76.43
2018-11-02T21:57:54.733Z,76.16
2018-11-02T22:00:24.510Z,75.84
2018-11-02T22:02:53.835Z,75.03
2018-11-02T22:05:23.662Z,75.26
2018-11-02T22:07:53.573Z,74.95
2018-11-02T22:13:54.505Z,73.14
2018-11-02T22:16:23.788Z,72.57
2018-11-02T22:18:53.763Z,72.67
2018-11-02T22:21:23.116Z,72.92
2018-11-02T22:23:52.310Z,72.62
2018-11-02T22:26:21.565Z,72.43
2018-11-02T22:28:50.646Z,72.07
2018-11-02T22:31:25.115Z,72.08
2018-11-02T22:33:54.544Z,71.94
2018-11-02T22:36:24.000Z,71.94
2018-11-02T22:38:53.296Z,72.15
2018-11-02T22:41:23.145Z,71.79
2018-11-02T22:43:53.033Z,71.68
2018-11-02T22:46:23.633Z,70.99
2018-11-02T22:48:53.513Z,70.90
2018-11-02T22:51:23.407Z,70.88
2018-11-02T22:53:52.568Z,71.17
2018-11-02T22:56:21.657Z,70.95
2018-11-02T22:58:50.591Z,71.19
2018-11-02T23:01:25.438Z,71.45
2018-11-02T23:03:55.249Z,71.40
2018-11-02T23:06:25.151Z,70.98
2018-11-02T23:08:55.032Z,71.37
2018-11-02T23:11:24.344Z,70.99
2018-11-02T23:13:53.401Z,70.66
2018-11-02T23:16:23.367Z,70.49
2018-11-02T23:18:53.799Z,69.69
2018-11-02T23:21:22.692Z,70.02
2018-11-02T23:23:51.559Z,70.01
2018-11-02T23:26:21.171Z,69.12
2018-11-02T23:28:50.112Z,70.05
2018-11-02T23:31:19.047Z,69.74
2018-11-02T23:33:47.987Z,69.82
2018-11-02T23:36:17.222Z,70.18
2018-11-02T23:38:46.342Z,69.86
2018-11-02T23:41:16.661Z,70.54
2018-11-02T23:43:46.583Z,70.40
2018-11-02T23:46:16.160Z,70.03
2018-11-02T23:48:46.045Z,70.34
2018-11-02T23:51:15.843Z,70.09
2018-11-02T23:53:44.825Z,70.52
2018-11-02T23:56:14.436Z,70.72
2018-11-02T23:58:43.382Z,70.32
